createdAt,value
2022-08-24T00:02:07.889Z,22.90
2022-08-24T00:04:38.610Z,23.20
2022-08-24T00:07:05.942Z,23.20
2022-08-24T00:09:40.588Z,22.70
2022-08-24T00:12:07.432Z,23.10
2022-08-24T00:14:34.482Z,23.00
2022-08-24T00:17:01.359Z,22.70
2022-08-24T00:19:28.263Z,23.10
2022-08-24T00:21:55.031Z,22.60
2022-08-24T00:24:21.755Z,22.70
2022-08-24T00:26:48.927Z,22.70
2022-08-24T00:29:15.890Z,22.80
2022-08-24T00:31:42.731Z,22.70
2022-08-24T00:34:09.671Z,22.80
2022-08-24T00:36:36.449Z,23.10
2022-08-24T00:39:03.305Z,22.60
2022-08-24T00:41:30.110Z,22.50
2022-08-24T00:44:01.412Z,22.70
2022-08-24T00:46:35.039Z,22.70
2022-08-24T00:49:02.797Z,22.70
2022-08-24T00:51:31.243Z,22.50
2022-08-24T00:53:59.044Z,22.50
2022-08-24T00:56:29.608Z,22.70
2022-08-24T00:58:59.160Z,22.60
2022-08-24T01:01:26.277Z,22.50
2022-08-24T01:03:56.736Z,22.80
2022-08-24T01:06:24.091Z,22.70
2022-08-24T01:08:56.456Z,22.90
2022-08-24T01:11:24.666Z,22.70
2022-08-24T01:13:51.632Z,22.40
2022-08-24T01:16:38.498Z,22.60
2022-08-24T01:19:06.025Z,22.90
2022-08-24T01:21:41.471Z,22.50
2022-08-24T01:24:10.687Z,22.70
2022-08-24T01:26:39.591Z,22.50
2022-08-24T01:29:07.847Z,22.80
2022-08-24T01:31:34.833Z,23.00
2022-08-24T01:34:02.162Z,23.40
2022-08-24T01:36:30.956Z,23.20
2022-08-24T01:38:58.515Z,23.20
2022-08-24T01:41:28.913Z,23.30
2022-08-24T01:43:56.512Z,23.80
2022-08-24T01:46:23.299Z,23.80
2022-08-24T01:48:50.064Z,23.60
2022-08-24T01:51:16.792Z,23.70
2022-08-24T01:53:43.595Z,23.80
2022-08-24T01:56:10.381Z,23.40
2022-08-24T01:58:42.686Z,23.30
2022-08-24T02:01:09.485Z,23.60
2022-08-24T02:03:36.234Z,23.10
2022-08-24T02:06:05.058Z,23.40
2022-08-24T02:08:32.807Z,23.40
2022-08-24T02:10:59.547Z,22.90
2022-08-24T02:13:28.805Z,23.40
2022-08-24T02:15:55.673Z,22.80
2022-08-24T02:18:22.464Z,22.70
2022-08-24T02:20:49.535Z,23.00
2022-08-24T02:23:16.263Z,22.80
2022-08-24T02:25:43.008Z,22.60
2022-08-24T02:28:09.754Z,23.00
2022-08-24T02:30:36.479Z,22.60
2022-08-24T02:33:03.409Z,22.40
2022-08-24T02:35:31.061Z,22.70
2022-08-24T02:37:57.847Z,22.30
2022-08-24T02:40:24.996Z,22.60
2022-08-24T02:42:51.895Z,22.80
2022-08-24T02:45:18.639Z,22.40
2022-08-24T02:47:45.381Z,22.60
2022-08-24T02:50:12.715Z,23.00
2022-08-24T02:52:39.608Z,23.00
2022-08-24T02:55:08.018Z,22.90
2022-08-24T02:57:34.762Z,23.00
2022-08-24T03:00:10.254Z,23.20
2022-08-24T03:02:37.713Z,23.40
2022-08-24T03:05:04.979Z,23.50
2022-08-24T03:07:31.709Z,23.40
2022-08-24T03:09:58.468Z,24.00
2022-08-24T03:12:25.247Z,23.80
2022-08-24T03:14:52.016Z,23.80
2022-08-24T03:17:19.264Z,23.90
2022-08-24T03:19:46.611Z,23.80
2022-08-24T03:22:13.380Z,23.80
2022-08-24T03:24:40.154Z,23.90
2022-08-24T03:27:07.138Z,23.30
2022-08-24T03:29:35.366Z,23.40
2022-08-24T03:32:02.697Z,23.00
2022-08-24T03:34:29.452Z,23.00
2022-08-24T03:36:56.223Z,22.90
2022-08-24T03:39:23.004Z,23.10
2022-08-24T03:41:49.784Z,23.10
2022-08-24T03:44:19.153Z,23.40
2022-08-24T03:46:48.381Z,23.60
2022-08-24T03:49:15.479Z,23.60
2022-08-24T03:51:42.198Z,23.50
2022-08-24T03:54:09.480Z,23.30
2022-08-24T03:56:36.284Z,23.50
2022-08-24T03:59:03.056Z,23.70
2022-08-24T04:01:29.880Z,24.10
2022-08-24T04:03:56.918Z,23.60
2022-08-24T04:06:23.794Z,23.80
2022-08-24T04:08:50.536Z,23.80
2022-08-24T04:11:19.654Z,23.40
2022-08-24T04:13:46.797Z,23.20
2022-08-24T04:16:14.677Z,23.20
2022-08-24T04:18:41.649Z,23.10
2022-08-24T04:21:15.632Z,22.80
2022-08-24T04:23:46.849Z,22.80
2022-08-24T04:26:15.122Z,22.90
2022-08-24T04:28:41.845Z,22.80
2022-08-24T04:31:08.694Z,22.60
2022-08-24T04:33:35.496Z,22.70
2022-08-24T04:36:02.892Z,22.50
2022-08-24T04:38:30.210Z,22.60
2022-08-24T04:40:56.962Z,22.50
2022-08-24T04:43:27.170Z,22.60
2022-08-24T04:45:54.007Z,22.80
2022-08-24T04:48:20.799Z,22.50
2022-08-24T04:50:47.948Z,22.90
2022-08-24T04:53:15.161Z,23.00
2022-08-24T04:55:43.903Z,22.90
2022-08-24T04:58:11.199Z,23.00
2022-08-24T05:00:38.256Z,23.40
2022-08-24T05:03:05.310Z,23.40
2022-08-24T05:05:32.799Z,23.50
2022-08-24T05:07:59.790Z,23.80
2022-08-24T05:10:26.603Z,23.80
2022-08-24T05:13:00.480Z,23.90
2022-08-24T05:15:27.326Z,23.50
2022-08-24T05:17:54.041Z,23.90
2022-08-24T05:20:20.802Z,23.50
2022-08-24T05:22:47.534Z,23.50
2022-08-24T05:25:14.832Z,23.70
2022-08-24T05:27:41.561Z,23.30
2022-08-24T05:30:08.638Z,23.20
2022-08-24T05:32:35.375Z,23.00
2022-08-24T05:35:04.506Z,23.10
2022-08-24T05:37:37.763Z,23.00
2022-08-24T05:40:05.294Z,23.00
2022-08-24T05:42:32.082Z,23.20
2022-08-24T05:44:59.042Z,22.70
2022-08-24T05:47:25.787Z,22.70
2022-08-24T05:49:53.725Z,22.70
2022-08-24T05:52:20.980Z,23.10
2022-08-24T05:54:54.689Z,23.10
2022-08-24T05:57:21.644Z,23.10
2022-08-24T05:59:48.365Z,23.00
2022-08-24T06:02:15.354Z,23.60
2022-08-24T06:04:42.276Z,23.30
2022-08-24T06:07:10.254Z,23.70
2022-08-24T06:09:37.492Z,23.30
2022-08-24T06:12:04.590Z,23.40
2022-08-24T06:14:31.340Z,23.60
2022-08-24T06:16:58.202Z,23.60
2022-08-24T06:19:26.975Z,23.50
2022-08-24T06:21:53.974Z,23.50
2022-08-24T06:24:40.949Z,23.60
2022-08-24T06:27:22.805Z,23.90
2022-08-24T06:29:50.623Z,24.00
2022-08-24T06:32:17.443Z,24.00
2022-08-24T06:34:44.184Z,23.50
2022-08-24T06:37:10.956Z,23.70
2022-08-24T06:39:37.710Z,23.30
2022-08-24T06:42:05.228Z,23.40
2022-08-24T06:44:32.069Z,23.00
2022-08-24T06:46:58.835Z,23.20
2022-08-24T06:49:25.604Z,23.00
2022-08-24T06:51:52.341Z,22.90
2022-08-24T06:54:20.949Z,22.90
2022-08-24T06:56:47.727Z,22.70
2022-08-24T06:59:14.604Z,22.70
2022-08-24T07:01:41.465Z,22.80
2022-08-24T07:04:08.655Z,22.90
2022-08-24T07:06:35.491Z,22.70
2022-08-24T07:09:02.236Z,22.80
2022-08-24T07:11:29.023Z,22.70
2022-08-24T07:13:55.747Z,22.60
2022-08-24T07:16:22.841Z,22.70
2022-08-24T07:18:50.583Z,22.90
2022-08-24T07:21:19.689Z,23.40
2022-08-24T07:23:47.391Z,23.20
2022-08-24T07:26:21.555Z,23.30
2022-08-24T07:29:05.265Z,23.50
2022-08-24T07:31:35.419Z,23.40
2022-08-24T07:34:03.622Z,23.70
2022-08-24T07:36:30.376Z,23.60
2022-08-24T07:38:57.474Z,23.70
2022-08-24T07:44:12.702Z,23.50
2022-08-24T07:46:39.882Z,23.60
2022-08-24T07:49:12.451Z,23.30
2022-08-24T07:51:46.985Z,23.40
2022-08-24T07:54:13.997Z,23.10
2022-08-24T07:56:41.464Z,23.30
2022-08-24T07:59:12.451Z,23.10
2022-08-24T08:01:40.107Z,23.30
2022-08-24T08:04:06.953Z,22.90
2022-08-24T08:06:33.695Z,23.10
2022-08-24T08:09:00.479Z,22.60
2022-08-24T08:11:27.190Z,22.50
2022-08-24T08:13:54.407Z,22.50
2022-08-24T08:16:21.828Z,22.50
2022-08-24T08:18:52.401Z,22.70
2022-08-24T08:21:51.032Z,22.40
2022-08-24T08:24:21.182Z,22.40
2022-08-24T08:26:50.491Z,22.40
2022-08-24T08:29:18.430Z,22.80
2022-08-24T08:31:45.584Z,22.50
2022-08-24T08:34:13.125Z,22.60
2022-08-24T08:36:40.328Z,22.30
2022-08-24T08:39:07.708Z,22.20
2022-08-24T08:41:50.147Z,22.60
2022-08-24T08:44:35.576Z,22.30
2022-08-24T08:47:02.299Z,22.60
2022-08-24T08:49:29.296Z,22.40
2022-08-24T08:52:07.325Z,22.60
2022-08-24T08:54:37.217Z,22.70
2022-08-24T08:57:24.261Z,22.50
2022-08-24T08:59:51.426Z,23.30
2022-08-24T09:02:23.152Z,22.90
2022-08-24T09:05:09.441Z,23.10
2022-08-24T09:07:36.205Z,23.50
2022-08-24T09:10:21.358Z,23.20
2022-08-24T09:12:59.476Z,23.70
2022-08-24T09:15:26.315Z,23.70
2022-08-24T09:18:04.175Z,23.80
2022-08-24T09:20:49.599Z,23.60
2022-08-24T09:23:16.330Z,23.50
2022-08-24T09:25:48.288Z,23.70
2022-08-24T09:28:15.166Z,24.10
2022-08-24T09:31:00.517Z,23.60
2022-08-24T09:33:47.553Z,23.80
2022-08-24T09:36:20.639Z,23.60
2022-08-24T09:38:58.979Z,23.60
2022-08-24T09:41:44.974Z,23.50
2022-08-24T09:44:20.661Z,23.60
2022-08-24T09:46:47.388Z,23.50
2022-08-24T09:49:32.783Z,23.70
2022-08-24T09:52:06.740Z,23.60
2022-08-24T09:54:33.451Z,23.70
2022-08-24T09:57:12.455Z,24.00
2022-08-24T09:59:39.768Z,23.90
2022-08-24T10:02:09.295Z,24.00
2022-08-24T10:04:45.306Z,23.90
2022-08-24T10:07:15.366Z,23.80
2022-08-24T10:09:48.269Z,23.80
2022-08-24T10:12:33.563Z,23.60
2022-08-24T10:15:05.127Z,23.60
2022-08-24T10:17:38.601Z,23.50
2022-08-24T10:20:05.951Z,23.60
2022-08-24T10:22:35.858Z,23.60
2022-08-24T10:25:09.060Z,23.60
2022-08-24T10:27:41.240Z,23.80
2022-08-24T10:30:10.315Z,24.00
2022-08-24T10:32:37.058Z,23.70
2022-08-24T10:35:03.890Z,23.70
2022-08-24T10:37:42.359Z,24.10
2022-08-24T10:40:13.363Z,23.90
2022-08-24T10:43:17.377Z,23.80
2022-08-24T10:45:53.374Z,23.80
2022-08-24T10:48:22.958Z,23.70
2022-08-24T10:50:49.696Z,24.00
2022-08-24T10:53:23.386Z,24.20
2022-08-24T10:55:52.948Z,23.90
2022-08-24T10:58:29.491Z,24.00
2022-08-24T11:00:56.504Z,24.10
2022-08-24T11:03:28.120Z,23.80
2022-08-24T11:05:55.491Z,24.10
2022-08-24T11:08:23.310Z,23.80
2022-08-24T11:11:09.381Z,24.20
2022-08-24T11:13:36.747Z,23.80
2022-08-24T11:16:03.855Z,23.80
2022-08-24T11:18:59.905Z,24.10
2022-08-24T11:21:38.728Z,23.80
2022-08-24T11:24:07.810Z,24.10
2022-08-24T11:26:45.309Z,24.20
2022-08-24T11:29:12.061Z,23.90
2022-08-24T11:31:39.964Z,23.90
2022-08-24T11:34:08.205Z,24.30
2022-08-24T11:36:35.748Z,24.10
2022-08-24T11:39:15.435Z,24.20
2022-08-24T11:41:51.470Z,24.00
2022-08-24T11:44:21.125Z,23.70
2022-08-24T11:46:47.972Z,24.10
2022-08-24T11:49:29.768Z,24.10
2022-08-24T11:51:59.612Z,24.30
2022-08-24T11:54:41.739Z,24.10
2022-08-24T11:57:18.261Z,24.10
2022-08-24T11:59:48.450Z,23.90
2022-08-24T12:02:27.724Z,24.10
2022-08-24T12:05:12.864Z,24.50
2022-08-24T12:07:50.865Z,24.10
2022-08-24T12:10:20.654Z,24.00
2022-08-24T12:13:09.452Z,24.00
2022-08-24T12:15:36.228Z,24.20
2022-08-24T12:18:24.001Z,24.10
2022-08-24T12:20:50.981Z,24.50
2022-08-24T12:23:23.727Z,24.10
2022-08-24T12:26:09.429Z,24.00
2022-08-24T12:28:36.511Z,24.10
2022-08-24T12:31:06.861Z,24.10
2022-08-24T12:33:37.015Z,24.60
2022-08-24T12:36:06.442Z,24.20
2022-08-24T12:38:38.718Z,24.10
2022-08-24T12:41:17.717Z,24.10
2022-08-24T12:43:49.922Z,24.50
2022-08-24T12:46:17.467Z,24.10
2022-08-24T12:48:49.175Z,24.60
2022-08-24T12:51:15.919Z,24.10
2022-08-24T12:53:46.045Z,24.50
2022-08-24T12:56:18.310Z,24.50
2022-08-24T12:58:54.472Z,24.50
2022-08-24T13:01:26.993Z,24.30
2022-08-24T13:04:04.128Z,24.60
2022-08-24T13:06:49.363Z,24.10
2022-08-24T13:09:51.400Z,24.30
2022-08-24T13:12:32.926Z,24.60
2022-08-24T13:15:18.204Z,24.10
2022-08-24T13:17:44.955Z,24.20
2022-08-24T13:20:17.099Z,24.70
2022-08-24T13:22:48.207Z,24.50
2022-08-24T13:25:23.841Z,24.20
2022-08-24T13:28:00.700Z,24.70
2022-08-24T13:30:28.869Z,24.60
2022-08-24T13:32:57.436Z,24.40
2022-08-24T13:35:30.476Z,24.20
2022-08-24T13:38:15.611Z,24.60
2022-08-24T13:40:46.247Z,24.60
2022-08-24T13:43:16.476Z,24.30
2022-08-24T13:45:49.011Z,24.30
2022-08-24T13:48:27.984Z,24.90
2022-08-24T13:51:16.826Z,24.30
2022-08-24T13:53:44.263Z,24.80
2022-08-24T13:56:29.688Z,24.50
2022-08-24T13:59:00.346Z,24.30
2022-08-24T14:01:35.924Z,24.80
2022-08-24T14:04:08.466Z,24.80
2022-08-24T14:06:41.390Z,24.90
2022-08-24T14:09:22.847Z,24.70
2022-08-24T14:11:49.641Z,24.70
2022-08-24T14:14:34.812Z,24.70
2022-08-24T14:17:22.885Z,24.80
2022-08-24T14:20:02.749Z,24.60
2022-08-24T14:22:33.944Z,24.40
2022-08-24T14:25:13.083Z,24.90
2022-08-24T14:27:39.919Z,24.80
2022-08-24T14:30:26.617Z,24.70
2022-08-24T14:32:59.187Z,24.90
2022-08-24T14:35:36.238Z,24.80
2022-08-24T14:38:24.146Z,25.00
2022-08-24T14:41:09.567Z,24.30
2022-08-24T14:43:41.279Z,24.70
2022-08-24T14:46:10.812Z,24.90
2022-08-24T14:48:43.799Z,24.90
2022-08-24T14:51:22.597Z,24.90
2022-08-24T14:53:55.239Z,24.80
2022-08-24T14:56:31.921Z,25.10
2022-08-24T14:59:03.668Z,24.60
2022-08-24T15:01:46.763Z,24.90
2022-08-24T15:04:30.790Z,24.40
2022-08-24T15:07:11.172Z,24.70
2022-08-24T15:09:38.717Z,24.90
2022-08-24T15:12:13.627Z,24.90
2022-08-24T15:14:41.522Z,24.70
2022-08-24T15:17:10.047Z,24.90
2022-08-24T15:19:48.924Z,24.50
2022-08-24T15:22:24.164Z,24.70
2022-08-24T15:25:00.159Z,24.70
2022-08-24T15:27:33.124Z,24.40
2022-08-24T15:30:03.558Z,24.70
2022-08-24T15:32:43.681Z,24.90
2022-08-24T15:35:22.096Z,24.90
2022-08-24T15:37:48.861Z,24.70
2022-08-24T15:40:16.964Z,24.20
2022-08-24T15:42:43.739Z,24.60
2022-08-24T15:45:10.862Z,24.70
2022-08-24T15:47:38.593Z,24.60
2022-08-24T15:50:09.210Z,24.80
2022-08-24T15:52:35.954Z,24.50
2022-08-24T15:55:03.585Z,24.70
2022-08-24T15:57:31.051Z,25.10
2022-08-24T16:00:13.294Z,25.00
2022-08-24T16:02:41.482Z,24.90
2022-08-24T16:05:11.011Z,24.80
2022-08-24T16:07:59.667Z,24.60
2022-08-24T16:10:32.853Z,25.10
2022-08-24T16:13:17.816Z,24.70
2022-08-24T16:15:47.389Z,24.60
2022-08-24T16:18:14.419Z,24.90
2022-08-24T16:20:41.341Z,24.90
2022-08-24T16:23:09.775Z,24.70
2022-08-24T16:25:41.033Z,24.70
2022-08-24T16:28:21.772Z,24.90
2022-08-24T16:30:51.739Z,24.60
2022-08-24T16:33:39.195Z,24.80
2022-08-24T16:36:12.109Z,24.70
2022-08-24T16:38:41.661Z,24.90
2022-08-24T16:41:10.518Z,24.80
2022-08-24T16:43:37.769Z,24.80
2022-08-24T16:46:05.054Z,24.80
2022-08-24T16:48:31.885Z,24.90
2022-08-24T16:50:59.055Z,24.80
2022-08-24T16:53:25.829Z,24.80
2022-08-24T16:55:52.640Z,24.80
2022-08-24T16:58:19.406Z,24.80
2022-08-24T17:00:46.293Z,24.70
2022-08-24T17:03:15.144Z,24.80
2022-08-24T17:05:42.055Z,24.90
2022-08-24T17:08:09.380Z,24.90
2022-08-24T17:10:37.957Z,24.70
2022-08-24T17:13:04.844Z,25.10
2022-08-24T17:15:31.582Z,24.60
2022-08-24T17:18:00.134Z,25.10
2022-08-24T17:20:27.350Z,24.90
2022-08-24T17:22:54.339Z,24.90
2022-08-24T17:25:21.083Z,24.60
2022-08-24T17:27:47.842Z,25.20
2022-08-24T17:30:17.143Z,25.20
2022-08-24T17:32:44.005Z,24.90
2022-08-24T17:35:11.165Z,25.00
2022-08-24T17:37:38.473Z,25.10
2022-08-24T17:40:05.452Z,25.10
2022-08-24T17:42:50.298Z,25.20
2022-08-24T17:45:17.942Z,24.90
2022-08-24T17:47:44.795Z,25.20
2022-08-24T17:50:11.840Z,24.80
2022-08-24T17:52:38.914Z,25.20
2022-08-24T17:55:06.444Z,25.10
2022-08-24T17:57:33.157Z,25.30
2022-08-24T17:59:59.929Z,24.70
2022-08-24T18:02:26.692Z,25.20
2022-08-24T18:04:53.488Z,25.20
2022-08-24T18:07:35.880Z,25.30
2022-08-24T18:10:08.096Z,24.80
2022-08-24T18:12:34.815Z,24.70
2022-08-24T18:15:03.879Z,24.60
2022-08-24T18:17:33.071Z,24.90
2022-08-24T18:20:00.024Z,25.00
2022-08-24T18:22:26.748Z,24.80
2022-08-24T18:24:53.513Z,25.30
2022-08-24T18:27:30.117Z,24.90
2022-08-24T18:29:58.306Z,25.00
2022-08-24T18:32:30.951Z,25.20
2022-08-24T18:34:57.852Z,25.10
2022-08-24T18:37:24.625Z,24.80
2022-08-24T18:39:51.596Z,25.10
2022-08-24T18:42:18.420Z,25.40
2022-08-24T18:44:45.218Z,24.70
2022-08-24T18:47:12.051Z,25.00
2022-08-24T18:49:39.012Z,25.40
2022-08-24T18:52:06.645Z,25.30
2022-08-24T18:54:35.487Z,25.40
2022-08-24T18:57:02.401Z,24.90
2022-08-24T18:59:29.142Z,25.00
2022-08-24T19:02:23.131Z,24.90
2022-08-24T19:04:49.942Z,24.90
2022-08-24T19:07:16.708Z,24.90
2022-08-24T19:09:43.456Z,25.10
2022-08-24T19:12:10.224Z,24.90
2022-08-24T19:14:37.088Z,25.00
2022-08-24T19:17:04.100Z,25.00
2022-08-24T19:19:30.900Z,25.40
2022-08-24T19:21:57.717Z,25.40
2022-08-24T19:24:25.616Z,24.90
2022-08-24T19:26:52.549Z,25.10
2022-08-24T19:29:38.996Z,25.40
2022-08-24T19:32:06.307Z,25.30
2022-08-24T19:34:37.055Z,25.30
2022-08-24T19:37:04.819Z,25.40
2022-08-24T19:39:32.007Z,25.40
2022-08-24T19:41:58.793Z,25.20
2022-08-24T19:44:49.428Z,25.20
2022-08-24T19:47:18.824Z,25.10
2022-08-24T19:49:45.758Z,25.20
2022-08-24T19:52:12.595Z,25.10
2022-08-24T19:54:41.136Z,25.50
2022-08-24T19:57:26.606Z,25.30
2022-08-24T19:59:53.459Z,25.20
2022-08-24T20:02:20.253Z,25.50
2022-08-24T20:04:47.037Z,25.10
2022-08-24T20:07:14.783Z,25.30
2022-08-24T20:09:41.550Z,25.20
2022-08-24T20:12:09.094Z,25.10
2022-08-24T20:14:37.519Z,25.30
2022-08-24T20:17:05.043Z,25.10
2022-08-24T20:19:32.537Z,25.60
2022-08-24T20:21:59.367Z,25.50
2022-08-24T20:24:27.944Z,25.30
2022-08-24T20:26:54.707Z,25.60
2022-08-24T20:29:21.503Z,25.60
2022-08-24T20:31:50.655Z,25.30
2022-08-24T20:34:18.781Z,25.50
2022-08-24T20:36:48.230Z,25.20
2022-08-24T20:39:15.148Z,25.20
2022-08-24T20:41:41.921Z,25.50
2022-08-24T20:44:09.331Z,25.40
2022-08-24T20:46:36.396Z,25.60
2022-08-24T20:49:03.223Z,25.30
2022-08-24T20:51:29.970Z,25.30
2022-08-24T20:53:56.710Z,25.60
2022-08-24T20:56:30.732Z,25.60
2022-08-24T20:58:59.253Z,25.10
2022-08-24T21:01:26.087Z,25.10
2022-08-24T21:03:54.928Z,24.90
2022-08-24T21:06:21.714Z,25.50
2022-08-24T21:08:48.700Z,25.50
2022-08-24T21:11:15.699Z,25.50
2022-08-24T21:13:42.457Z,25.50
2022-08-24T21:16:09.741Z,25.10
2022-08-24T21:18:37.260Z,25.20
2022-08-24T21:21:04.839Z,25.70
2022-08-24T21:23:32.784Z,25.20
2022-08-24T21:26:02.841Z,25.20
2022-08-24T21:28:29.606Z,25.70
2022-08-24T21:30:56.401Z,25.40
2022-08-24T21:33:41.756Z,25.00
2022-08-24T21:36:09.015Z,25.20
2022-08-24T21:38:35.866Z,25.20
2022-08-24T21:41:02.709Z,25.20
2022-08-24T21:43:29.492Z,25.00
2022-08-24T21:45:56.411Z,25.40
2022-08-24T21:48:23.220Z,25.30
2022-08-24T21:50:49.971Z,25.40
2022-08-24T21:53:16.807Z,25.40
2022-08-24T21:55:43.565Z,25.20
2022-08-24T21:58:10.725Z,25.40
2022-08-24T22:00:37.534Z,24.90
2022-08-24T22:03:04.903Z,25.10
2022-08-24T22:05:31.923Z,25.00
2022-08-24T22:07:58.707Z,24.50
2022-08-24T22:10:26.282Z,24.60
2022-08-24T22:12:53.083Z,24.50
2022-08-24T22:15:20.146Z,24.10
2022-08-24T22:17:52.778Z,24.50
2022-08-24T22:20:23.448Z,24.40
2022-08-24T22:22:50.547Z,24.10
2022-08-24T22:25:17.344Z,24.50
2022-08-24T22:27:44.348Z,24.50
2022-08-24T22:30:12.056Z,24.90
2022-08-24T22:32:38.787Z,24.60
2022-08-24T22:35:05.999Z,25.10
2022-08-24T22:37:34.107Z,24.80
2022-08-24T22:40:01.008Z,25.30
2022-08-24T22:42:28.841Z,25.40
2022-08-24T22:44:57.276Z,25.10
2022-08-24T22:47:24.318Z,25.10
2022-08-24T22:49:51.071Z,24.80
2022-08-24T22:52:18.680Z,25.30
2022-08-24T22:54:45.440Z,25.30
2022-08-24T22:57:12.211Z,24.80
2022-08-24T22:59:39.784Z,24.90
2022-08-24T23:02:08.606Z,25.60
2022-08-24T23:04:36.082Z,24.90
2022-08-24T23:07:03.250Z,25.00
2022-08-24T23:09:33.988Z,25.30
2022-08-24T23:12:11.332Z,24.70
2022-08-24T23:14:38.099Z,24.90
2022-08-24T23:17:04.899Z,24.60
2022-08-24T23:19:50.015Z,24.60
2022-08-24T23:22:17.457Z,24.40
2022-08-24T23:24:44.978Z,24.30
2022-08-24T23:27:12.171Z,24.20
2022-08-24T23:29:39.487Z,24.20
2022-08-24T23:32:06.523Z,24.00
2022-08-24T23:34:33.511Z,24.10
2022-08-24T23:37:00.372Z,24.20
2022-08-24T23:39:27.213Z,24.00
2022-08-24T23:41:54.049Z,24.30
2022-08-24T23:44:21.899Z,23.90
2022-08-24T23:46:48.672Z,23.80
2022-08-24T23:49:16.171Z,23.60
2022-08-24T23:51:42.935Z,23.50
2022-08-24T23:54:09.930Z,23.60
2022-08-24T23:56:37.094Z,24.10
2022-08-24T23:59:06.493Z,23.50
